createdAt,value
2022-10-20T00:01:35.499Z,7.75
2022-10-20T00:04:07.466Z,7.82
2022-10-20T00:06:36.262Z,8.32
2022-10-20T00:09:06.142Z,6.93
2022-10-20T00:11:35.252Z,7.28
2022-10-20T00:14:05.537Z,7.18
2022-10-20T00:16:37.041Z,7.07
2022-10-20T00:19:08.538Z,7.47
2022-10-20T00:21:37.166Z,6.68
2022-10-20T00:24:06.110Z,7.03
2022-10-20T00:26:36.208Z,6.40
2022-10-20T00:29:06.109Z,7.07
2022-10-20T00:31:37.416Z,7.32
2022-10-20T00:34:07.567Z,7.53
2022-10-20T00:36:36.289Z,7.78
2022-10-20T00:39:06.665Z,7.82
2022-10-20T00:41:37.683Z,7.72
2022-10-20T00:44:21.380Z,8.25
2022-10-20T00:46:51.834Z,9.15
2022-10-20T00:49:24.099Z,8.48
2022-10-20T00:51:54.511Z,9.65
2022-10-20T00:54:25.563Z,14.73
2022-10-20T00:56:56.250Z,16.05
2022-10-20T00:59:28.419Z,10.60
2022-10-20T01:01:57.595Z,10.02
2022-10-20T01:04:29.788Z,8.15
2022-10-20T01:07:00.665Z,8.02
2022-10-20T01:09:29.437Z,7.60
2022-10-20T01:12:01.229Z,7.80
2022-10-20T01:14:38.866Z,7.20
2022-10-20T01:17:12.942Z,6.97
2022-10-20T01:20:02.481Z,8.10
2022-10-20T01:22:39.113Z,7.55
2022-10-20T01:25:15.772Z,7.45
2022-10-20T01:27:46.825Z,6.55
2022-10-20T01:30:16.801Z,7.70
2022-10-20T01:32:57.063Z,7.22
2022-10-20T01:35:32.372Z,7.13
2022-10-20T01:38:06.044Z,8.07
2022-10-20T01:40:38.649Z,8.45
2022-10-20T01:43:11.570Z,8.50
2022-10-20T01:45:41.687Z,11.17
2022-10-20T01:48:11.971Z,11.45
2022-10-20T01:50:41.761Z,10.00
2022-10-20T01:53:10.583Z,10.25
2022-10-20T01:55:43.120Z,9.57
2022-10-20T01:58:27.889Z,8.45
2022-10-20T02:01:00.469Z,8.32
2022-10-20T02:03:34.672Z,8.25
2022-10-20T02:06:11.957Z,8.60
2022-10-20T02:08:45.115Z,7.68
2022-10-20T02:11:16.986Z,7.72
2022-10-20T02:13:50.071Z,7.88
2022-10-20T02:16:22.737Z,7.75
2022-10-20T02:18:51.644Z,8.65
2022-10-20T02:21:20.773Z,9.55
2022-10-20T02:23:51.128Z,8.55
2022-10-20T02:26:20.891Z,8.18
2022-10-20T02:28:55.104Z,7.88
2022-10-20T02:31:26.626Z,8.25
2022-10-20T02:33:56.445Z,8.90
2022-10-20T02:36:29.967Z,8.40
2022-10-20T02:38:58.812Z,8.30
2022-10-20T02:41:31.345Z,7.50
2022-10-20T02:44:03.426Z,8.07
2022-10-20T02:46:32.186Z,7.93
2022-10-20T02:49:09.476Z,8.07
2022-10-20T02:51:40.332Z,7.40
2022-10-20T02:54:11.318Z,7.88
2022-10-20T02:56:40.167Z,7.60
2022-10-20T02:59:16.913Z,7.68
2022-10-20T03:01:47.631Z,7.95
2022-10-20T03:04:16.760Z,7.75
2022-10-20T03:06:46.782Z,8.43
2022-10-20T03:09:18.115Z,8.05
2022-10-20T03:11:46.972Z,7.70
2022-10-20T03:14:18.985Z,8.32
2022-10-20T03:16:47.641Z,7.65
2022-10-20T03:19:18.183Z,8.18
2022-10-20T03:21:49.033Z,8.07
2022-10-20T03:24:17.848Z,8.10
2022-10-20T03:26:46.439Z,8.60
2022-10-20T03:29:17.380Z,8.20
2022-10-20T03:31:47.381Z,9.15
2022-10-20T03:34:16.146Z,8.32
2022-10-20T03:36:44.842Z,8.13
2022-10-20T03:39:13.430Z,8.27
2022-10-20T03:41:42.328Z,7.93
2022-10-20T03:44:11.631Z,7.78
2022-10-20T03:46:40.154Z,8.35
2022-10-20T03:49:10.103Z,8.27
2022-10-20T03:51:38.688Z,8.00
2022-10-20T03:54:07.450Z,9.95
2022-10-20T03:56:38.039Z,15.50
2022-10-20T03:59:06.543Z,14.85
2022-10-20T04:01:36.843Z,13.43
2022-10-20T04:04:05.508Z,10.98
2022-10-20T04:06:35.517Z,10.32
2022-10-20T04:09:05.006Z,9.80
2022-10-20T04:11:34.115Z,10.00
2022-10-20T04:14:02.648Z,9.93
2022-10-20T04:16:33.999Z,10.68
2022-10-20T04:19:02.638Z,9.00
2022-10-20T04:21:31.269Z,9.13
2022-10-20T04:24:01.113Z,12.18
2022-10-20T04:26:29.814Z,13.65
2022-10-20T04:28:58.610Z,12.77
2022-10-20T04:31:27.196Z,9.77
2022-10-20T04:33:55.876Z,9.48
2022-10-20T04:36:24.480Z,9.18
2022-10-20T04:38:53.165Z,9.98
2022-10-20T04:41:23.363Z,10.48
2022-10-20T04:43:55.428Z,11.15
2022-10-20T04:46:27.025Z,11.00
2022-10-20T04:48:57.172Z,11.23
2022-10-20T04:51:28.657Z,10.60
2022-10-20T04:53:57.393Z,11.30
2022-10-20T04:56:29.658Z,9.25
2022-10-20T04:59:00.809Z,11.20
2022-10-20T05:01:30.329Z,13.02
2022-10-20T05:03:59.422Z,12.43
2022-10-20T05:06:28.855Z,12.88
2022-10-20T05:08:58.858Z,11.60
2022-10-20T05:11:30.231Z,12.13
2022-10-20T05:13:58.954Z,11.20
2022-10-20T05:16:31.725Z,11.00
2022-10-20T05:19:00.413Z,11.50
2022-10-20T05:21:32.983Z,11.52
2022-10-20T05:24:02.722Z,11.27
2022-10-20T05:26:35.119Z,11.90
2022-10-20T05:29:04.854Z,13.30
2022-10-20T05:31:36.736Z,11.18
2022-10-20T05:34:09.291Z,11.05
2022-10-20T05:36:42.721Z,10.98
2022-10-20T05:39:16.136Z,11.82
2022-10-20T05:41:46.368Z,10.77
2022-10-20T05:44:30.596Z,10.80
2022-10-20T05:46:59.580Z,10.00
2022-10-20T05:49:29.494Z,11.30
2022-10-20T05:52:05.001Z,12.02
2022-10-20T05:54:39.011Z,11.30
2022-10-20T05:57:18.000Z,11.35
2022-10-20T05:59:46.738Z,11.18
2022-10-20T06:02:17.598Z,11.30
2022-10-20T06:04:46.380Z,9.90
2022-10-20T06:07:48.803Z,11.18
2022-10-20T06:10:36.439Z,11.05
2022-10-20T06:15:51.589Z,10.55
2022-10-20T06:18:22.961Z,10.77
2022-10-20T06:21:01.651Z,10.68
2022-10-20T06:26:39.848Z,11.13
2022-10-20T06:29:10.757Z,11.45
2022-10-20T06:31:45.374Z,10.93
2022-10-20T06:34:23.794Z,10.15
2022-10-20T06:37:10.727Z,10.55
2022-10-20T06:40:08.800Z,10.75
2022-10-20T06:45:39.179Z,10.13
2022-10-20T06:48:14.138Z,10.85
2022-10-20T06:50:42.777Z,10.55
2022-10-20T06:53:13.310Z,10.98
2022-10-20T06:55:41.979Z,10.68
2022-10-20T06:58:11.972Z,11.70
2022-10-20T07:00:40.505Z,10.27
2022-10-20T07:03:10.776Z,10.82
2022-10-20T07:05:41.883Z,10.98
2022-10-20T07:08:12.183Z,10.98
2022-10-20T07:10:41.393Z,10.70
2022-10-20T07:13:10.024Z,10.10
2022-10-20T07:15:38.595Z,10.60
2022-10-20T07:18:07.181Z,10.70
2022-10-20T07:20:37.150Z,10.55
2022-10-20T07:23:06.086Z,10.20
2022-10-20T07:25:34.784Z,10.07
2022-10-20T07:28:04.788Z,10.27
2022-10-20T07:30:35.916Z,10.63
2022-10-20T07:33:04.665Z,10.27
2022-10-20T07:35:33.470Z,10.15
2022-10-20T07:38:04.008Z,9.88
2022-10-20T07:40:32.658Z,9.77
2022-10-20T07:43:02.453Z,10.13
2022-10-20T07:45:30.957Z,9.95
2022-10-20T07:48:00.066Z,10.45
2022-10-20T07:50:28.752Z,10.27
2022-10-20T07:52:57.408Z,9.65
2022-10-20T07:55:42.737Z,9.88
2022-10-20T07:58:14.079Z,9.80
2022-10-20T08:00:42.636Z,10.40
2022-10-20T08:03:11.497Z,9.20
2022-10-20T08:05:40.151Z,10.38
2022-10-20T08:08:10.683Z,9.23
2022-10-20T08:10:40.776Z,10.02
2022-10-20T08:13:09.536Z,9.43
2022-10-20T08:15:43.378Z,10.02
2022-10-20T08:20:40.617Z,8.65
2022-10-20T08:23:09.268Z,9.95
2022-10-20T08:25:37.890Z,9.57
2022-10-20T08:28:07.941Z,9.77
2022-10-20T08:30:36.635Z,9.13
2022-10-20T08:33:05.399Z,10.55
2022-10-20T08:35:34.001Z,9.88
2022-10-20T08:38:02.743Z,10.65
2022-10-20T08:40:32.503Z,9.90
2022-10-20T08:43:01.104Z,9.90
2022-10-20T08:45:34.699Z,9.93
2022-10-20T08:48:06.247Z,9.20
2022-10-20T08:50:36.089Z,8.77
2022-10-20T08:53:04.857Z,9.23
2022-10-20T08:55:34.382Z,8.68
2022-10-20T08:58:08.338Z,8.27
2022-10-20T09:00:39.844Z,9.25
2022-10-20T09:03:13.872Z,9.18
2022-10-20T09:05:44.872Z,8.65
2022-10-20T09:08:13.558Z,8.88
2022-10-20T09:10:43.691Z,9.18
2022-10-20T09:13:18.793Z,9.63
2022-10-20T09:15:49.115Z,8.60
2022-10-20T09:18:18.615Z,8.30
2022-10-20T09:20:49.914Z,9.18
2022-10-20T09:23:40.110Z,9.23
2022-10-20T09:26:24.783Z,7.90
2022-10-20T09:29:12.866Z,8.80
2022-10-20T09:31:44.553Z,8.18
2022-10-20T09:34:23.778Z,8.05
2022-10-20T09:36:53.345Z,8.35
2022-10-20T09:39:23.930Z,8.23
2022-10-20T09:41:53.041Z,9.30
2022-10-20T09:44:24.507Z,8.30
2022-10-20T09:46:55.232Z,8.27
2022-10-20T09:49:29.798Z,8.90
2022-10-20T09:51:58.882Z,8.93
2022-10-20T09:54:27.995Z,8.38
2022-10-20T09:57:07.597Z,8.65
2022-10-20T09:59:37.756Z,8.27
2022-10-20T10:02:30.558Z,8.13
2022-10-20T10:05:13.980Z,8.30
2022-10-20T10:07:42.793Z,9.05
2022-10-20T10:10:27.326Z,8.18
2022-10-20T10:12:56.889Z,8.48
2022-10-20T10:15:27.772Z,7.95
2022-10-20T10:17:58.059Z,8.73
2022-10-20T10:20:31.270Z,7.30
2022-10-20T10:23:10.103Z,7.85
2022-10-20T10:25:38.723Z,7.53
2022-10-20T10:28:09.112Z,8.00
2022-10-20T10:30:39.505Z,8.38
2022-10-20T10:33:22.930Z,7.45
2022-10-20T10:35:52.773Z,7.28
2022-10-20T10:38:21.932Z,7.40
2022-10-20T10:40:54.362Z,7.22
2022-10-20T10:43:31.010Z,7.70
2022-10-20T10:46:01.328Z,6.65
2022-10-20T10:48:40.883Z,7.28
2022-10-20T10:51:12.409Z,6.60
2022-10-20T10:53:49.387Z,7.43
2022-10-20T10:56:21.064Z,8.00
2022-10-20T10:58:52.745Z,7.35
2022-10-20T11:01:32.941Z,7.22
2022-10-20T11:04:17.741Z,7.65
2022-10-20T11:06:55.584Z,7.95
2022-10-20T11:09:34.225Z,7.47
2022-10-20T11:12:17.637Z,6.68
2022-10-20T11:14:49.190Z,7.15
2022-10-20T11:17:27.616Z,7.30
2022-10-20T11:20:02.421Z,7.18
2022-10-20T11:22:39.053Z,6.90
2022-10-20T11:25:12.022Z,6.75
2022-10-20T11:27:42.432Z,6.93
2022-10-20T11:30:18.411Z,6.95
2022-10-20T11:32:49.785Z,6.20
2022-10-20T11:35:28.437Z,6.38
2022-10-20T11:38:04.906Z,5.88
2022-10-20T11:40:34.523Z,5.70
2022-10-20T11:43:10.982Z,6.32
2022-10-20T11:45:44.619Z,6.45
2022-10-20T11:48:17.738Z,6.32
2022-10-20T11:50:53.199Z,6.00
2022-10-20T11:53:30.029Z,6.40
2022-10-20T11:56:10.657Z,5.97
2022-10-20T11:59:00.460Z,6.22
2022-10-20T12:01:32.927Z,5.90
2022-10-20T12:04:18.244Z,5.60
2022-10-20T12:06:56.345Z,6.13
2022-10-20T12:09:37.194Z,6.35
2022-10-20T12:12:08.775Z,5.97
2022-10-20T12:14:41.568Z,7.32
2022-10-20T12:17:39.016Z,6.03
2022-10-20T12:20:26.178Z,7.10
2022-10-20T12:22:56.043Z,6.50
2022-10-20T12:25:40.600Z,6.43
2022-10-20T12:28:28.904Z,5.80
2022-10-20T12:30:58.979Z,6.65
2022-10-20T12:33:40.049Z,5.95
2022-10-20T12:36:18.845Z,7.00
2022-10-20T12:38:48.581Z,6.20
2022-10-20T12:41:28.499Z,7.03
2022-10-20T12:44:04.391Z,6.60
2022-10-20T12:46:36.141Z,6.32
2022-10-20T12:49:10.991Z,6.40
2022-10-20T12:51:42.123Z,5.47
2022-10-20T12:54:19.136Z,6.10
2022-10-20T12:56:49.603Z,5.95
2022-10-20T12:59:39.746Z,6.80
2022-10-20T13:02:24.065Z,6.32
2022-10-20T13:04:56.431Z,6.28
2022-10-20T13:07:45.824Z,6.30
2022-10-20T13:10:29.276Z,6.93
2022-10-20T13:13:19.522Z,5.95
2022-10-20T13:15:50.573Z,5.95
2022-10-20T13:18:21.010Z,6.55
2022-10-20T13:20:51.672Z,6.18
2022-10-20T13:23:22.054Z,6.38
2022-10-20T13:25:54.022Z,5.78
2022-10-20T13:28:28.796Z,6.00
2022-10-20T13:31:06.146Z,6.40
2022-10-20T13:34:02.773Z,5.50
2022-10-20T13:39:04.821Z,5.57
2022-10-20T13:44:16.446Z,5.97
2022-10-20T13:46:49.434Z,6.32
2022-10-20T13:49:28.868Z,6.47
2022-10-20T13:52:02.777Z,6.13
2022-10-20T13:54:32.142Z,6.70
2022-10-20T13:57:00.955Z,6.57
2022-10-20T13:59:31.856Z,6.20
2022-10-20T14:02:01.489Z,6.28
2022-10-20T14:04:32.281Z,6.82
2022-10-20T14:07:04.964Z,5.05
2022-10-20T14:09:33.614Z,5.35
2022-10-20T14:12:03.267Z,5.70
2022-10-20T14:14:34.263Z,6.22
2022-10-20T14:17:04.718Z,5.85
2022-10-20T14:19:33.749Z,5.40
2022-10-20T14:22:12.872Z,5.85
2022-10-20T14:24:44.016Z,6.22
2022-10-20T14:27:19.238Z,6.03
2022-10-20T14:29:49.637Z,5.70
2022-10-20T14:32:23.200Z,6.05
2022-10-20T14:34:56.455Z,6.47
2022-10-20T14:37:29.035Z,8.23
2022-10-20T14:39:57.676Z,8.23
2022-10-20T14:42:27.211Z,7.55
2022-10-20T14:45:00.823Z,7.70
2022-10-20T14:47:34.652Z,7.00
2022-10-20T14:50:04.150Z,6.68
2022-10-20T14:52:35.704Z,5.95
2022-10-20T14:55:07.200Z,6.40
2022-10-20T14:57:50.276Z,6.63
2022-10-20T15:00:33.656Z,6.70
2022-10-20T15:03:07.203Z,7.88
2022-10-20T15:08:10.999Z,6.35
2022-10-20T15:10:40.377Z,6.07
2022-10-20T15:13:23.674Z,6.47
2022-10-20T15:15:59.514Z,5.97
2022-10-20T15:18:30.880Z,6.30
2022-10-20T15:20:59.697Z,7.43
2022-10-20T15:23:30.377Z,7.30
2022-10-20T15:26:02.915Z,6.80
2022-10-20T15:28:33.866Z,8.27
2022-10-20T15:31:06.207Z,7.72
2022-10-20T15:33:34.902Z,8.52
2022-10-20T15:36:03.372Z,8.85
2022-10-20T15:38:32.626Z,7.30
2022-10-20T15:41:02.230Z,7.95
2022-10-20T15:43:32.716Z,9.07
2022-10-20T15:46:01.585Z,8.85
2022-10-20T15:48:31.762Z,7.03
2022-10-20T15:51:02.462Z,7.70
2022-10-20T15:53:30.932Z,7.60
2022-10-20T15:56:00.670Z,7.80
2022-10-20T15:58:29.220Z,7.40
2022-10-20T16:00:57.876Z,7.32
2022-10-20T16:03:26.451Z,7.25
2022-10-20T16:05:56.528Z,6.68
2022-10-20T16:08:25.091Z,7.68
2022-10-20T16:10:57.965Z,6.57
2022-10-20T16:13:27.836Z,8.33
2022-10-20T16:15:56.404Z,8.68
2022-10-20T16:18:24.976Z,9.73
2022-10-20T16:20:55.284Z,9.95
2022-10-20T16:23:25.213Z,9.77
2022-10-20T16:25:56.928Z,11.43
2022-10-20T16:28:28.681Z,10.23
2022-10-20T16:31:03.121Z,10.23
2022-10-20T16:33:33.536Z,9.65
2022-10-20T16:36:03.604Z,10.50
2022-10-20T16:38:39.903Z,9.77
2022-10-20T16:41:10.011Z,9.90
2022-10-20T16:43:39.246Z,9.80
2022-10-20T16:46:08.082Z,10.32
2022-10-20T16:48:38.996Z,10.55
2022-10-20T16:51:11.805Z,9.77
2022-10-20T16:53:44.550Z,10.38
2022-10-20T16:56:16.703Z,9.13
2022-10-20T16:58:50.843Z,7.03
2022-10-20T17:01:24.234Z,7.38
2022-10-20T17:04:00.150Z,6.68
2022-10-20T17:06:32.902Z,7.13
2022-10-20T17:09:05.711Z,7.03
2022-10-20T17:11:37.158Z,7.30
2022-10-20T17:14:08.772Z,7.53
2022-10-20T17:16:40.485Z,6.88
2022-10-20T17:19:09.034Z,7.20
2022-10-20T17:21:40.250Z,7.35
2022-10-20T17:24:14.844Z,7.95
2022-10-20T17:26:46.721Z,7.40
2022-10-20T17:29:23.667Z,8.05
2022-10-20T17:31:56.707Z,10.55
2022-10-20T17:34:26.982Z,11.93
2022-10-20T17:36:56.564Z,10.88
2022-10-20T17:39:28.046Z,12.32
2022-10-20T17:42:02.575Z,10.73
2022-10-20T17:44:31.832Z,11.00
2022-10-20T17:47:02.249Z,12.00
2022-10-20T17:50:04.918Z,11.32
2022-10-20T17:55:41.996Z,12.98
2022-10-20T17:58:19.977Z,14.07
2022-10-20T18:00:56.848Z,13.98
2022-10-20T18:03:27.180Z,15.00
2022-10-20T18:05:58.332Z,12.60
2022-10-20T18:08:30.513Z,14.02
2022-10-20T18:11:01.725Z,13.55
2022-10-20T18:13:38.795Z,12.73
2022-10-20T18:16:09.562Z,12.43
2022-10-20T18:18:41.900Z,12.68
2022-10-20T18:21:12.518Z,11.27
2022-10-20T18:23:45.947Z,11.52
2022-10-20T18:26:17.283Z,12.35
2022-10-20T18:28:48.298Z,11.38
2022-10-20T18:31:18.776Z,13.02
2022-10-20T18:33:48.569Z,13.32
2022-10-20T18:36:18.106Z,11.07
2022-10-20T18:38:49.035Z,10.57
2022-10-20T18:41:19.821Z,11.63
2022-10-20T18:43:48.853Z,11.60
2022-10-20T18:46:22.098Z,11.02
2022-10-20T18:48:52.094Z,11.88
2022-10-20T18:51:20.844Z,11.35
2022-10-20T18:53:49.560Z,13.13
2022-10-20T18:56:20.614Z,11.77
2022-10-20T18:58:50.386Z,11.13
2022-10-20T19:01:19.621Z,10.60
2022-10-20T19:03:51.384Z,10.75
2022-10-20T19:06:22.065Z,10.85
2022-10-20T19:08:52.907Z,11.25
2022-10-20T19:11:23.627Z,12.45
2022-10-20T19:13:52.201Z,12.98
2022-10-20T19:16:21.664Z,13.05
2022-10-20T19:18:50.761Z,12.27
2022-10-20T19:21:24.809Z,13.73
2022-10-20T19:23:57.454Z,12.23
2022-10-20T19:26:30.600Z,13.73
2022-10-20T19:29:00.754Z,13.80
2022-10-20T19:31:32.740Z,13.20
2022-10-20T19:34:05.900Z,10.52
2022-10-20T19:36:36.693Z,11.02
2022-10-20T19:39:07.108Z,10.90
2022-10-20T19:41:42.362Z,12.07
2022-10-20T19:44:12.699Z,12.30
2022-10-20T19:46:41.785Z,13.95
2022-10-20T19:49:10.530Z,13.60
2022-10-20T19:51:39.454Z,17.35
2022-10-20T19:54:08.446Z,21.73
2022-10-20T19:56:39.067Z,20.83
2022-10-20T19:59:08.416Z,18.52
2022-10-20T20:01:37.778Z,15.52
2022-10-20T20:04:07.919Z,13.20
2022-10-20T20:06:42.623Z,15.50
2022-10-20T20:09:14.580Z,23.35
2022-10-20T20:11:45.021Z,14.60
2022-10-20T20:14:17.654Z,15.70
2022-10-20T20:17:07.375Z,14.90
2022-10-20T20:20:18.156Z,14.80
2022-10-20T20:36:39.589Z,12.13
2022-10-20T20:39:17.444Z,12.10
2022-10-20T20:41:48.654Z,11.90
